Time;durP1;ratioP1;P1;durP2;ratioP2;P2;SDS_P1;SDS_P2;PMS_P1;PMS_P2;Temp;Humidity;BMP_temperature;BMP_pressure;BME280_temperature;BME280_humidity;BME280_pressure;Samples;Min_cycle;Max_cycle;Signal;HPM_P1;HPM_P2
2022/10/13 00:01:21;;;;;;;19.60;12.80;;;13.90;83.30;;;;;;5110188;28;20181;-57
2022/10/13 00:03:47;;;;;;;17.60;13.13;;;13.80;83.60;;;;;;5105167;28;20264;-57
2022/10/13 00:06:15;;;;;;;17.93;12.43;;;13.80;83.70;;;;;;5103074;28;20193;-57
2022/10/13 00:08:41;;;;;;;19.37;13.67;;;13.80;83.60;;;;;;5108641;28;20270;-57
2022/10/13 00:11:16;;;;;;;16.67;13.03;;;13.80;83.60;;;;;;5093745;28;20193;-57
2022/10/13 00:13:43;;;;;;;19.00;13.30;;;13.70;83.60;;;;;;5091260;28;20201;-57
2022/10/13 00:16:10;;;;;;;20.53;13.00;;;13.70;83.60;;;;;;5099341;28;20181;-57
2022/10/13 00:18:36;;;;;;;19.47;12.10;;;13.60;83.30;;;;;;5098780;28;20184;-57
2022/10/13 00:21:06;;;;;;;22.57;14.00;;;13.50;83.20;;;;;;5090531;28;20196;-58
2022/10/13 00:23:33;;;;;;;16.47;12.90;;;13.40;83.30;;;;;;5094965;28;20191;-58
2022/10/13 00:26:03;;;;;;;15.83;12.77;;;13.30;83.50;;;;;;5085786;28;20280;-58
2022/10/13 00:28:29;;;;;;;19.00;13.67;;;13.30;83.80;;;;;;5087786;28;20277;-58
2022/10/13 00:30:55;;;;;;;19.60;13.43;;;13.30;83.90;;;;;;5087627;28;20278;-57
2022/10/13 00:33:20;;;;;;;21.53;13.03;;;13.30;83.70;;;;;;5095497;28;20191;-58
2022/10/13 00:35:48;;;;;;;19.23;14.13;;;13.20;83.80;;;;;;5098831;28;20219;-57
2022/10/13 00:38:16;;;;;;;16.70;13.10;;;13.10;84.30;;;;;;5095515;28;20234;-57
2022/10/13 00:40:55;;;;;;;17.43;13.23;;;13.10;84.20;;;;;;5085980;28;20232;-57
2022/10/13 00:43:23;;;;;;;19.63;12.73;;;13.00;84.10;;;;;;5090557;28;20195;-56
2022/10/13 00:45:50;;;;;;;17.77;13.37;;;13.00;84.10;;;;;;5093638;28;20234;-58
2022/10/13 00:48:29;;;;;;;16.33;13.33;;;13.00;83.90;;;;;;5111490;28;20195;-57
2022/10/13 00:50:57;;;;;;;17.57;12.70;;;13.00;84.00;;;;;;5090997;28;20184;-57
2022/10/13 00:53:27;;;;;;;18.53;13.37;;;12.90;84.10;;;;;;5087524;28;20182;-57
2022/10/13 00:55:54;;;;;;;19.07;13.80;;;12.90;84.10;;;;;;5083749;28;20192;-57
2022/10/13 00:58:22;;;;;;;22.17;12.90;;;12.90;84.40;;;;;;5083617;28;20189;-55
2022/10/13 01:00:49;;;;;;;19.57;13.27;;;12.90;84.20;;;;;;5092876;28;20215;-57
2022/10/13 01:03:17;;;;;;;22.80;14.63;;;12.90;84.10;;;;;;5085136;28;20241;-58
2022/10/13 01:05:43;;;;;;;19.07;14.00;;;12.80;84.00;;;;;;5089863;28;20184;-56
2022/10/13 01:08:11;;;;;;;24.50;15.77;;;12.80;84.10;;;;;;5076117;28;20284;-57
2022/10/13 01:10:54;;;;;;;21.70;14.67;;;12.80;84.20;;;;;;5078403;28;20271;-57
2022/10/13 01:13:44;;;;;;;24.87;14.60;;;12.80;84.00;;;;;;5087528;28;20340;-56
2022/10/13 01:16:39;;;;;;;26.13;13.87;;;12.80;84.00;;;;;;5113818;28;20187;-57
2022/10/13 01:19:38;;;;;;;21.30;13.67;;;12.80;84.00;;;;;;5098850;28;20185;-57
2022/10/13 01:22:48;;;;;;;18.57;13.43;;;12.70;83.90;;;;;;5111121;28;20177;-57
2022/10/13 01:25:38;;;;;;;25.30;14.53;;;12.60;84.10;;;;;;5059724;28;20263;-56
2022/10/13 01:28:18;;;;;;;28.73;15.27;;;12.50;84.10;;;;;;5092330;28;20191;-56
2022/10/13 01:30:57;;;;;;;19.20;14.67;;;12.40;84.10;;;;;;5097677;28;20185;-56
2022/10/13 01:33:31;;;;;;;18.67;13.63;;;12.40;84.20;;;;;;5083719;28;20180;-57
2022/10/13 01:36:02;;;;;;;20.07;14.03;;;12.40;84.70;;;;;;5079944;28;20185;-57
2022/10/13 01:38:46;;;;;;;22.23;14.60;;;12.40;84.50;;;;;;5096285;28;20226;-58
2022/10/13 01:41:18;;;;;;;19.47;13.17;;;12.40;84.40;;;;;;5103722;28;20185;-57
2022/10/13 01:44:14;;;;;;;25.27;14.53;;;12.30;84.10;;;;;;5094348;28;20192;-57
2022/10/13 01:46:41;;;;;;;16.37;13.10;;;12.30;84.20;;;;;;5108875;27;20189;-57
2022/10/13 01:49:13;;;;;;;16.23;13.90;;;12.20;84.10;;;;;;5097224;28;20180;-56
2022/10/13 01:51:40;;;;;;;19.33;13.67;;;12.20;84.60;;;;;;5080171;28;20200;-56
2022/10/13 01:54:06;;;;;;;21.97;13.63;;;12.20;84.30;;;;;;5071871;28;20204;-58
2022/10/13 01:56:32;;;;;;;18.97;12.50;;;12.20;84.50;;;;;;5097494;28;20192;-57
2022/10/13 01:59:01;;;;;;;24.53;13.23;;;12.20;84.30;;;;;;5080985;28;20242;-58
2022/10/13 02:01:49;;;;;;;19.07;13.73;;;12.10;84.20;;;;;;5085486;28;20189;-57
2022/10/13 02:04:25;;;;;;;20.47;13.47;;;12.10;84.20;;;;;;5096907;28;20200;-57
2022/10/13 02:07:15;;;;;;;21.20;14.03;;;12.10;84.40;;;;;;5091264;28;20275;-57
2022/10/13 02:09:52;;;;;;;22.80;14.93;;;12.10;84.10;;;;;;5101574;28;20181;-57
2022/10/13 02:12:28;;;;;;;20.17;13.30;;;12.00;84.10;;;;;;5096157;28;20187;-58
2022/10/13 02:14:57;;;;;;;27.53;15.87;;;12.00;84.40;;;;;;5089084;28;20282;-56
2022/10/13 02:17:26;;;;;;;22.20;14.87;;;12.00;84.20;;;;;;5091387;28;20277;-57
2022/10/13 02:19:53;;;;;;;21.67;13.97;;;11.90;84.10;;;;;;5091486;28;20183;-56
2022/10/13 02:22:21;;;;;;;20.97;14.43;;;11.90;84.10;;;;;;5095678;28;20248;-58
2022/10/13 02:24:47;;;;;;;22.00;14.50;;;11.90;84.30;;;;;;5084418;28;20271;-55
2022/10/13 02:27:13;;;;;;;21.03;14.67;;;11.90;84.50;;;;;;5090578;28;20238;-56
2022/10/13 02:29:55;;;;;;;22.27;14.30;;;11.90;84.20;;;;;;5102622;28;20181;-56
2022/10/13 02:32:21;;;;;;;24.73;14.20;;;11.90;84.20;;;;;;5086627;28;20203;-55
2022/10/13 02:34:48;;;;;;;20.87;14.20;;;11.80;84.20;;;;;;5079422;28;20286;-57
2022/10/13 02:37:14;;;;;;;23.00;16.57;;;11.80;83.90;;;;;;5088483;28;20185;-56
2022/10/13 02:39:39;;;;;;;28.47;16.03;;;11.60;84.80;;;;;;5065805;28;20282;-57
2022/10/13 02:42:05;;;;;;;20.87;15.90;;;11.60;84.70;;;;;;5068202;28;20200;-57
2022/10/13 02:44:31;;;;;;;25.27;15.03;;;11.60;84.80;;;;;;5093240;28;20200;-57
2022/10/13 02:46:57;;;;;;;20.63;15.10;;;11.60;84.70;;;;;;5091602;28;20193;-57
2022/10/13 02:49:22;;;;;;;18.57;14.30;;;11.60;84.30;;;;;;5090377;28;20242;-57
2022/10/13 02:51:48;;;;;;;20.27;14.30;;;11.60;84.30;;;;;;5075632;28;20196;-57
2022/10/13 02:54:14;;;;;;;18.33;14.50;;;11.60;84.40;;;;;;5075597;28;20223;-56
2022/10/13 02:56:40;;;;;;;19.90;14.87;;;11.60;84.10;;;;;;5067363;28;20195;-57
2022/10/13 02:59:06;;;;;;;23.60;14.70;;;11.50;84.10;;;;;;5093639;28;20239;-57
2022/10/13 03:01:31;;;;;;;20.67;15.33;;;11.50;84.10;;;;;;5093245;28;20204;-55
2022/10/13 03:03:58;;;;;;;21.63;14.77;;;11.50;84.20;;;;;;5093292;28;20188;-56
2022/10/13 03:06:24;;;;;;;23.40;14.73;;;11.50;84.30;;;;;;5087994;28;20196;-55
2022/10/13 03:08:50;;;;;;;21.13;15.00;;;11.50;84.00;;;;;;5076878;28;20185;-56
2022/10/13 03:11:15;;;;;;;18.93;14.83;;;11.50;83.90;;;;;;5090685;28;20287;-55
2022/10/13 03:13:41;;;;;;;20.83;14.70;;;11.40;83.90;;;;;;5092011;28;20228;-56
2022/10/13 03:16:07;;;;;;;18.73;15.33;;;11.40;84.00;;;;;;5067582;28;20199;-57
2022/10/13 03:18:33;;;;;;;20.97;16.20;;;11.40;84.50;;;;;;5081738;28;20196;-57
2022/10/13 03:21:02;;;;;;;25.20;16.30;;;11.40;84.50;;;;;;5111591;28;20184;-57
2022/10/13 03:23:28;;;;;;;23.97;15.50;;;11.40;84.30;;;;;;5103716;28;20185;-57
2022/10/13 03:25:54;;;;;;;22.70;16.47;;;11.30;84.30;;;;;;5074612;28;20189;-56
2022/10/13 03:28:20;;;;;;;23.53;14.13;;;11.30;84.40;;;;;;5080368;28;20279;-58
2022/10/13 03:30:46;;;;;;;26.27;16.53;;;11.30;84.40;;;;;;5105167;28;20196;-55
2022/10/13 03:33:12;;;;;;;22.20;14.87;;;11.30;84.20;;;;;;5103047;28;20210;-55
2022/10/13 03:35:38;;;;;;;23.60;16.37;;;11.30;84.20;;;;;;5098346;28;20208;-56
2022/10/13 03:38:03;;;;;;;24.37;16.17;;;11.30;84.10;;;;;;5087445;28;20202;-54
2022/10/13 03:40:29;;;;;;;22.03;15.57;;;11.20;84.00;;;;;;5067166;28;20237;-54
2022/10/13 03:42:55;;;;;;;28.27;15.63;;;11.20;84.10;;;;;;5062633;28;20193;-55
2022/10/13 03:45:20;;;;;;;29.53;15.57;;;11.20;83.90;;;;;;5067088;28;20204;-56
2022/10/13 03:47:46;;;;;;;19.07;15.23;;;11.10;83.90;;;;;;5050799;28;20197;-57
2022/10/13 03:50:21;;;;;;;20.43;15.60;;;11.10;84.20;;;;;;4859757;28;20198;-57
2022/10/13 03:52:46;;;;;;;24.17;16.03;;;11.10;84.40;;;;;;3592259;28;21333;-55
2022/10/13 03:55:12;;;;;;;25.40;15.47;;;11.00;84.50;;;;;;5052304;28;20258;-52
2022/10/13 03:57:38;;;;;;;27.07;15.93;;;10.80;85.20;;;;;;5086383;28;20231;-52
2022/10/13 04:00:08;;;;;;;22.70;16.17;;;10.90;84.90;;;;;;4476434;28;21477;-55
2022/10/13 04:02:35;;;;;;;21.73;15.40;;;10.90;84.70;;;;;;5066397;28;20213;-57
2022/10/13 04:05:00;;;;;;;23.57;16.47;;;11.00;84.50;;;;;;5054661;28;20258;-55
2022/10/13 04:07:26;;;;;;;21.17;15.53;;;10.90;84.40;;;;;;5059561;28;20269;-55
2022/10/13 04:09:52;;;;;;;23.07;15.97;;;10.90;84.50;;;;;;5052557;28;20185;-57
2022/10/13 04:12:18;;;;;;;21.23;15.33;;;10.90;84.40;;;;;;5066846;28;20198;-58
2022/10/13 04:14:44;;;;;;;24.47;16.17;;;10.90;84.20;;;;;;5072515;28;20275;-57
2022/10/13 04:17:09;;;;;;;23.47;15.20;;;10.90;84.10;;;;;;5068789;28;20192;-56
2022/10/13 04:19:35;;;;;;;18.83;16.13;;;10.80;84.30;;;;;;5085642;28;20267;-56
2022/10/13 04:22:01;;;;;;;22.47;15.50;;;10.80;84.30;;;;;;5076525;28;20205;-57
2022/10/13 04:24:26;;;;;;;22.00;15.60;;;10.80;84.40;;;;;;5079566;28;20200;-57
2022/10/13 04:26:52;;;;;;;21.07;14.83;;;10.80;84.20;;;;;;5096568;28;20197;-57
2022/10/13 04:29:24;;;;;;;23.20;15.20;;;10.80;84.00;;;;;;4033842;28;20632;-53
2022/10/13 04:32:15;;;;;;;22.50;14.23;;;10.80;84.10;;;;;;3677187;28;22871;-57
2022/10/13 04:34:52;;;;;;;20.27;13.57;;;10.80;84.30;;;;;;3579865;28;21511;-59
2022/10/13 04:37:26;;;;;;;22.13;14.97;;;10.80;84.20;;;;;;3661263;28;20787;-57
2022/10/13 04:39:55;;;;;;;21.27;15.47;;;10.60;84.60;;;;;;3608492;28;21342;-57
2022/10/13 04:42:20;;;;;;;19.70;14.37;;;10.70;85.10;;;;;;3514316;28;20807;-56
2022/10/13 04:44:46;;;;;;;21.37;15.23;;;10.70;84.60;;;;;;3515809;28;21037;-56
2022/10/13 04:47:12;;;;;;;20.43;14.73;;;10.70;84.60;;;;;;3480077;28;20785;-56
2022/10/13 04:49:38;;;;;;;20.80;15.37;;;10.80;84.70;;;;;;3509220;28;20967;-56
2022/10/13 04:52:03;;;;;;;18.13;14.40;;;10.80;84.50;;;;;;3498180;28;22058;-55
2022/10/13 04:54:29;;;;;;;22.57;14.57;;;10.80;84.20;;;;;;3525384;28;21683;-56
2022/10/13 04:56:55;;;;;;;18.27;15.60;;;10.80;84.00;;;;;;3550102;28;20806;-57
2022/10/13 04:59:20;;;;;;;20.00;15.73;;;10.70;83.90;;;;;;4006868;28;20243;-56
2022/10/13 05:01:46;;;;;;;20.03;14.57;;;10.70;84.10;;;;;;5087546;28;20185;-54
2022/10/13 05:04:13;;;;;;;19.97;15.37;;;10.70;84.00;;;;;;5060636;28;20204;-56
2022/10/13 05:06:40;;;;;;;22.03;16.27;;;10.70;83.90;;;;;;5073091;28;20205;-55
2022/10/13 05:09:06;;;;;;;21.83;14.70;;;10.70;84.00;;;;;;5048106;28;20192;-55
2022/10/13 05:11:32;;;;;;;19.37;15.23;;;10.60;84.10;;;;;;5087947;28;20238;-53
2022/10/13 05:14:00;;;;;;;17.43;14.70;;;10.60;83.90;;;;;;5078924;28;20217;-54
2022/10/13 05:16:25;;;;;;;19.40;14.70;;;10.60;84.20;;;;;;5069728;28;20185;-56
2022/10/13 05:18:53;;;;;;;23.87;15.47;;;10.60;84.40;;;;;;5075238;28;20232;-58
2022/10/13 05:21:25;;;;;;;23.00;16.17;;;10.60;84.30;;;;;;5071638;28;20302;-60
2022/10/13 05:23:55;;;;;;;21.00;15.93;;;10.60;84.20;;;;;;5071575;28;20185;-60
2022/10/13 05:26:26;;;;;;;19.57;14.93;;;10.60;84.10;;;;;;5057202;28;20232;-59
2022/10/13 05:28:52;;;;;;;20.03;15.67;;;10.50;84.20;;;;;;5075080;28;20177;-54
2022/10/13 05:31:20;;;;;;;26.13;15.23;;;10.50;84.40;;;;;;5057338;28;20193;-57
2022/10/13 05:33:47;;;;;;;22.50;16.10;;;10.50;84.40;;;;;;5096344;28;20250;-57
2022/10/13 05:36:21;;;;;;;21.07;14.40;;;10.60;84.30;;;;;;5056040;28;20185;-58
2022/10/13 05:38:51;;;;;;;30.67;15.87;;;10.60;84.10;;;;;;5065414;28;20455;-56
2022/10/13 05:41:18;;;;;;;24.90;15.27;;;10.60;84.20;;;;;;5044514;28;20220;-58
2022/10/13 05:43:43;;;;;;;25.67;16.07;;;10.60;84.10;;;;;;5060033;28;20192;-58
2022/10/13 05:46:10;;;;;;;23.10;15.27;;;10.60;84.30;;;;;;5057578;28;20185;-58
2022/10/13 05:48:36;;;;;;;23.93;15.30;;;10.60;84.30;;;;;;5045752;28;20189;-58
2022/10/13 05:51:18;;;;;;;24.27;15.50;;;10.60;84.20;;;;;;5075158;28;20238;-58
2022/10/13 05:53:50;;;;;;;21.63;16.13;;;10.60;84.30;;;;;;5071268;28;20335;-58
2022/10/13 05:56:22;;;;;;;27.10;16.43;;;10.70;84.30;;;;;;5085385;28;20312;-56
2022/10/13 05:58:53;;;;;;;21.67;16.23;;;10.70;84.80;;;;;;5054886;28;20641;-57
2022/10/13 06:01:22;;;;;;;22.93;16.57;;;10.70;84.70;;;;;;5064792;28;20196;-55
2022/10/13 06:03:51;;;;;;;30.87;17.70;;;10.60;85.00;;;;;;5067814;28;20181;-55
2022/10/13 06:06:17;;;;;;;23.33;17.57;;;10.60;85.40;;;;;;5064718;28;20200;-54
2022/10/13 06:08:43;;;;;;;23.83;17.20;;;10.70;85.00;;;;;;5097597;28;20187;-56
2022/10/13 06:11:08;;;;;;;21.23;16.27;;;10.70;84.80;;;;;;5069027;28;20196;-57
2022/10/13 06:13:34;;;;;;;21.27;15.33;;;10.70;84.80;;;;;;5072445;28;20181;-56
2022/10/13 06:16:00;;;;;;;25.70;16.77;;;10.70;84.70;;;;;;5054501;28;20197;-57
2022/10/13 06:18:26;;;;;;;22.03;16.00;;;10.70;84.70;;;;;;5093747;28;20203;-57
2022/10/13 06:20:51;;;;;;;24.90;16.30;;;10.80;84.80;;;;;;5086803;28;20181;-57
2022/10/13 06:23:17;;;;;;;22.60;15.87;;;10.80;85.00;;;;;;5055798;28;20211;-56
2022/10/13 06:25:50;;;;;;;23.97;16.60;;;10.80;85.00;;;;;;5054137;28;20193;-57
2022/10/13 06:28:17;;;;;;;20.20;15.53;;;10.80;85.10;;;;;;5054851;28;20189;-57
2022/10/13 06:30:46;;;;;;;20.97;15.67;;;10.80;84.90;;;;;;5038448;28;20182;-56
2022/10/13 06:33:12;;;;;;;25.07;16.43;;;10.80;85.00;;;;;;5082581;28;20189;-56
2022/10/13 06:35:38;;;;;;;22.23;16.50;;;10.80;85.10;;;;;;5079573;28;20212;-55
2022/10/13 06:38:04;;;;;;;20.47;15.43;;;10.90;85.50;;;;;;5069664;28;20196;-56
2022/10/13 06:40:29;;;;;;;24.83;16.17;;;11.00;85.40;;;;;;5060331;28;20224;-56
2022/10/13 06:42:55;;;;;;;24.57;16.60;;;11.00;85.40;;;;;;5087633;28;20188;-56
2022/10/13 06:45:21;;;;;;;27.30;16.20;;;11.00;85.50;;;;;;5075382;28;20285;-57
2022/10/13 06:47:46;;;;;;;23.60;16.57;;;11.10;85.70;;;;;;5036276;28;20204;-56
2022/10/13 06:50:12;;;;;;;22.80;17.00;;;11.10;85.90;;;;;;5046332;28;20252;-56
2022/10/13 06:52:38;;;;;;;21.60;16.90;;;11.20;86.30;;;;;;5078348;28;20200;-56
2022/10/13 06:55:05;;;;;;;24.23;16.13;;;11.30;86.20;;;;;;5046490;28;20209;-55
2022/10/13 06:57:30;;;;;;;26.97;16.50;;;11.30;86.10;;;;;;5086625;28;20181;-56
2022/10/13 06:59:56;;;;;;;19.83;15.83;;;11.30;86.00;;;;;;5072116;28;20185;-56
2022/10/13 07:02:22;;;;;;;19.63;15.33;;;11.30;86.00;;;;;;5059468;28;20188;-56
2022/10/13 07:04:47;;;;;;;26.87;19.20;;;11.50;86.00;;;;;;5045923;28;20203;-57
2022/10/13 07:07:15;;;;;;;23.60;17.77;;;11.50;86.10;;;;;;5074891;28;20201;-57
2022/10/13 07:09:40;;;;;;;27.53;15.90;;;11.50;86.00;;;;;;5062211;28;20178;-54
2022/10/13 07:12:06;;;;;;;24.10;16.73;;;11.50;86.00;;;;;;5067954;28;20225;-57
2022/10/13 07:14:32;;;;;;;24.60;17.23;;;11.50;86.10;;;;;;5048593;28;20267;-57
2022/10/13 07:16:58;;;;;;;23.63;17.50;;;11.60;86.20;;;;;;5054467;28;20185;-57
2022/10/13 07:19:24;;;;;;;23.47;17.93;;;11.60;86.20;;;;;;5073098;28;20242;-56
2022/10/13 07:21:49;;;;;;;21.40;17.17;;;11.70;86.40;;;;;;5042675;28;20181;-57
2022/10/13 07:24:15;;;;;;;25.80;18.50;;;11.70;86.50;;;;;;5044573;28;20194;-57
2022/10/13 07:26:40;;;;;;;26.90;19.03;;;11.80;86.40;;;;;;5067296;28;20189;-57
2022/10/13 07:29:06;;;;;;;22.53;18.90;;;11.80;86.40;;;;;;5052128;28;20240;-56
2022/10/13 07:31:32;;;;;;;26.77;18.73;;;11.80;86.50;;;;;;5072741;28;20253;-57
2022/10/13 07:33:58;;;;;;;25.03;18.70;;;11.80;86.40;;;;;;5046951;28;20259;-55
2022/10/13 07:36:24;;;;;;;31.77;19.27;;;11.90;86.40;;;;;;5066817;28;20182;-57
2022/10/13 07:38:50;;;;;;;26.43;19.20;;;11.90;86.50;;;;;;5050126;28;20229;-57
2022/10/13 07:41:16;;;;;;;26.37;17.70;;;11.90;86.60;;;;;;5077089;28;20196;-57
2022/10/13 07:43:42;;;;;;;23.07;18.33;;;12.00;86.60;;;;;;5079197;28;20221;-57
2022/10/13 07:46:10;;;;;;;23.47;17.40;;;12.00;86.50;;;;;;5070074;28;20204;-57
2022/10/13 07:48:36;;;;;;;24.17;18.23;;;12.00;86.50;;;;;;5068220;28;20217;-56
2022/10/13 07:51:07;;;;;;;29.07;18.67;;;12.10;86.40;;;;;;5053362;28;20212;-57
2022/10/13 07:53:34;;;;;;;24.60;17.97;;;12.20;86.50;;;;;;5060493;28;20181;-57
2022/10/13 07:56:01;;;;;;;21.10;17.53;;;12.20;86.40;;;;;;5041368;28;20335;-57
2022/10/13 07:58:28;;;;;;;22.50;18.33;;;12.20;86.30;;;;;;5064828;28;20182;-57
2022/10/13 08:00:58;;;;;;;23.37;17.87;;;12.30;86.40;;;;;;5075796;28;20181;-57
2022/10/13 08:03:24;;;;;;;25.53;17.73;;;12.30;86.40;;;;;;5050221;28;20186;-57
2022/10/13 08:05:50;;;;;;;22.30;18.17;;;12.30;86.50;;;;;;5097774;28;20182;-57
2022/10/13 08:08:15;;;;;;;24.63;18.13;;;12.40;86.40;;;;;;5075175;28;20207;-57
2022/10/13 08:10:41;;;;;;;25.70;18.80;;;12.40;86.40;;;;;;5062557;28;20194;-57
2022/10/13 08:13:08;;;;;;;29.00;20.53;;;12.50;86.40;;;;;;5093835;28;20198;-57
2022/10/13 08:15:34;;;;;;;26.63;19.70;;;12.50;86.30;;;;;;5059079;28;20201;-57
2022/10/13 08:17:59;;;;;;;25.30;20.33;;;12.50;86.30;;;;;;5054182;28;20192;-57
2022/10/13 08:20:25;;;;;;;24.87;19.73;;;12.60;86.20;;;;;;5067458;28;20717;-57
2022/10/13 08:22:51;;;;;;;27.20;20.33;;;12.60;86.30;;;;;;5053877;28;20185;-57
2022/10/13 08:25:16;;;;;;;23.93;18.37;;;12.60;86.40;;;;;;5056735;28;20300;-55
2022/10/13 08:27:42;;;;;;;25.30;21.10;;;12.70;86.20;;;;;;5040205;28;20281;-58
2022/10/13 08:30:08;;;;;;;28.93;19.93;;;12.80;86.40;;;;;;5078419;28;20288;-56
2022/10/13 08:32:34;;;;;;;23.73;19.07;;;12.80;86.20;;;;;;5059804;28;20194;-57
2022/10/13 08:35:00;;;;;;;24.30;18.53;;;12.80;86.20;;;;;;5092682;28;20206;-57
2022/10/13 08:37:25;;;;;;;26.33;21.17;;;12.90;86.10;;;;;;5059911;28;20189;-57
2022/10/13 08:39:54;;;;;;;28.80;21.77;;;12.90;86.10;;;;;;5058481;28;20294;-56
2022/10/13 08:42:21;;;;;;;28.77;22.17;;;13.00;86.00;;;;;;5051297;28;20186;-56
2022/10/13 08:45:04;;;;;;;28.43;21.47;;;13.00;85.00;;;;;;5053174;28;20193;-57
2022/10/13 08:47:35;;;;;;;24.57;19.00;;;13.10;85.30;;;;;;5053872;28;20196;-57
2022/10/13 08:50:09;;;;;;;27.90;22.50;;;13.20;85.30;;;;;;5082953;28;20201;-57
2022/10/13 08:52:46;;;;;;;27.50;21.47;;;13.30;84.20;;;;;;5075076;28;20270;-57
2022/10/13 08:55:22;;;;;;;30.83;20.77;;;13.30;84.80;;;;;;5073300;28;20223;-57
2022/10/13 08:57:48;;;;;;;24.37;18.57;;;13.40;84.60;;;;;;5075206;28;20188;-57
2022/10/13 09:00:13;;;;;;;23.80;20.37;;;13.50;84.50;;;;;;5060787;28;20190;-57
2022/10/13 09:02:42;;;;;;;24.60;18.93;;;13.60;84.20;;;;;;5074569;28;20182;-57
2022/10/13 09:05:15;;;;;;;30.37;21.40;;;13.70;84.30;;;;;;5063047;28;20190;-57
2022/10/13 09:07:44;;;;;;;28.97;21.80;;;13.80;84.10;;;;;;5080807;28;20185;-57
2022/10/13 09:10:10;;;;;;;26.23;20.90;;;13.90;83.70;;;;;;5107072;28;20195;-57
2022/10/13 09:12:36;;;;;;;30.57;22.47;;;13.90;83.50;;;;;;5055411;28;20189;-58
2022/10/13 09:15:11;;;;;;;29.73;22.57;;;14.00;82.90;;;;;;5063093;28;20232;-57
2022/10/13 09:17:39;;;;;;;30.87;22.40;;;14.20;82.20;;;;;;5088705;28;20181;-57
2022/10/13 09:20:23;;;;;;;32.13;24.73;;;14.30;82.20;;;;;;5068822;28;20211;-57
2022/10/13 09:23:06;;;;;;;31.37;21.20;;;14.30;82.90;;;;;;5073187;28;20273;-57
2022/10/13 09:25:43;;;;;;;27.10;22.03;;;14.30;83.10;;;;;;5074467;28;20181;-57
2022/10/13 09:28:23;;;;;;;30.20;22.87;;;14.50;82.00;;;;;;5064979;28;20208;-58
2022/10/13 09:31:14;;;;;;;27.30;20.90;;;14.50;82.10;;;;;;5073694;28;20195;-57
2022/10/13 09:33:39;;;;;;;32.30;22.57;;;14.50;82.30;;;;;;5074813;28;20185;-57
2022/10/13 09:36:11;;;;;;;24.57;21.07;;;14.60;81.90;;;;;;5070928;28;20198;-57
2022/10/13 09:38:39;;;;;;;31.50;23.70;;;14.70;81.90;;;;;;5073539;28;20242;-57
2022/10/13 09:41:08;;;;;;;32.20;23.70;;;14.70;80.80;;;;;;5057395;28;20647;-57
2022/10/13 09:43:44;;;;;;;31.80;22.20;;;14.80;80.20;;;;;;5082915;28;20196;-57
2022/10/13 09:46:16;;;;;;;31.07;21.53;;;14.90;80.80;;;;;;5072238;28;20275;-57
2022/10/13 09:48:51;;;;;;;26.90;21.77;;;14.90;79.80;;;;;;5091660;28;20247;-57
2022/10/13 09:51:33;;;;;;;29.63;22.23;;;15.00;79.50;;;;;;5061392;28;20193;-58
2022/10/13 09:53:59;;;;;;;26.77;22.93;;;15.00;79.80;;;;;;5066413;28;20528;-57
2022/10/13 09:56:29;;;;;;;29.50;21.33;;;15.30;78.80;;;;;;5061148;28;20208;-57
2022/10/13 09:59:07;;;;;;;28.17;21.07;;;15.40;78.60;;;;;;5070811;28;20235;-58
2022/10/13 10:01:39;;;;;;;28.23;22.13;;;15.40;79.00;;;;;;5073499;28;20263;-57
2022/10/13 10:04:09;;;;;;;26.50;20.13;;;15.40;78.90;;;;;;5084111;28;20290;-57
2022/10/13 10:06:36;;;;;;;24.07;18.10;;;15.50;79.00;;;;;;5060041;28;20189;-57
2022/10/13 10:09:34;;;;;;;23.73;17.83;;;15.60;78.90;;;;;;5061298;28;20181;-56
2022/10/13 10:12:02;;;;;;;21.73;18.10;;;15.70;77.10;;;;;;5063498;28;20277;-57
2022/10/13 10:14:29;;;;;;;25.13;20.03;;;15.70;77.40;;;;;;5070857;28;20215;-57
2022/10/13 10:17:32;;;;;;;25.07;20.07;;;15.80;77.00;;;;;;5054582;28;20182;-58
2022/10/13 10:20:20;;;;;;;27.30;20.17;;;15.80;76.60;;;;;;5075726;28;20299;-57
2022/10/13 10:22:45;;;;;;;23.83;18.87;;;15.90;77.10;;;;;;5074567;28;20206;-58
2022/10/13 10:25:29;;;;;;;26.80;19.67;;;16.00;76.40;;;;;;5070317;28;20219;-57
2022/10/13 10:28:30;;;;;;;21.70;19.20;;;16.10;77.40;;;;;;5058863;28;20190;-58
2022/10/13 10:31:20;;;;;;;21.30;17.73;;;16.10;75.20;;;;;;5098495;28;20186;-57
2022/10/13 10:34:13;;;;;;;27.17;19.03;;;16.20;75.90;;;;;;5071332;28;20217;-58
2022/10/13 10:37:07;;;;;;;25.73;17.60;;;16.30;75.20;;;;;;5069790;28;20181;-57
2022/10/13 10:39:54;;;;;;;26.77;18.60;;;16.40;76.40;;;;;;5066932;28;20232;-58
2022/10/13 10:42:56;;;;;;;27.37;17.87;;;16.40;77.30;;;;;;5069715;28;20193;-58
2022/10/13 10:45:25;;;;;;;23.17;19.13;;;16.50;76.50;;;;;;5065633;28;20185;-58
2022/10/13 10:47:56;;;;;;;25.03;18.23;;;16.50;74.50;;;;;;5101176;28;20182;-58
2022/10/13 10:50:22;;;;;;;27.20;20.40;;;16.60;75.30;;;;;;5064533;28;20213;-58
2022/10/13 10:53:27;;;;;;;28.37;20.17;;;16.60;74.80;;;;;;5070057;28;20200;-58
2022/10/13 10:56:17;;;;;;;27.37;19.43;;;16.60;75.10;;;;;;5030801;28;20250;-58
2022/10/13 10:59:04;;;;;;;24.47;18.20;;;16.80;76.40;;;;;;5087237;28;20200;-58
2022/10/13 11:01:41;;;;;;;23.37;18.60;;;16.80;76.70;;;;;;5070142;28;20281;-58
2022/10/13 11:04:43;;;;;;;24.63;18.53;;;17.10;75.50;;;;;;5070904;28;20224;-58
2022/10/13 11:07:13;;;;;;;22.97;17.43;;;17.10;73.90;;;;;;5095692;28;20212;-58
2022/10/13 11:09:41;;;;;;;23.80;17.20;;;17.10;73.90;;;;;;5093542;28;20199;-58
2022/10/13 11:12:45;;;;;;;24.13;17.30;;;17.30;72.90;;;;;;5067222;28;20204;-57
2022/10/13 11:15:19;;;;;;;22.57;17.73;;;17.50;73.30;;;;;;5047894;28;20246;-54
2022/10/13 11:17:45;;;;;;;22.00;17.23;;;17.60;73.10;;;;;;5064412;28;20182;-57
2022/10/13 11:20:19;;;;;;;17.30;14.83;;;17.60;74.80;;;;;;5059116;28;20197;-57
2022/10/13 11:23:11;;;;;;;19.40;15.93;;;17.70;72.90;;;;;;5090231;28;20184;-58
2022/10/13 11:25:44;;;;;;;21.03;16.13;;;17.70;71.00;;;;;;5068311;28;20338;-58
2022/10/13 11:28:22;;;;;;;19.37;15.43;;;17.90;72.10;;;;;;5063072;28;20189;-58
2022/10/13 11:31:13;;;;;;;22.83;15.30;;;17.80;71.50;;;;;;5074284;28;20191;-58
2022/10/13 11:33:39;;;;;;;18.47;15.07;;;17.90;71.90;;;;;;5073235;28;20198;-58
2022/10/13 11:36:50;;;;;;;18.40;14.27;;;18.10;72.20;;;;;;5091167;28;20338;-58
2022/10/13 11:39:26;;;;;;;19.23;14.83;;;18.20;72.30;;;;;;5071056;28;20312;-58
2022/10/13 11:42:00;;;;;;;15.83;14.13;;;18.40;71.20;;;;;;5110082;28;20260;-58
2022/10/13 11:44:33;;;;;;;19.67;15.07;;;18.40;71.00;;;;;;5074962;28;20217;-58
2022/10/13 11:47:16;;;;;;;16.13;13.30;;;18.50;70.20;;;;;;5071838;28;20197;-58
2022/10/13 11:49:55;;;;;;;18.27;13.67;;;18.60;66.60;;;;;;5091355;28;20273;-58
2022/10/13 11:52:54;;;;;;;16.97;13.37;;;18.70;69.00;;;;;;5075399;28;20201;-58
2022/10/13 11:55:55;;;;;;;17.00;12.07;;;18.80;67.10;;;;;;5062257;28;20228;-52
2022/10/13 11:58:24;;;;;;;14.00;12.00;;;19.00;68.00;;;;;;5064051;28;20197;-52
2022/10/13 12:01:02;;;;;;;14.47;12.57;;;19.00;66.40;;;;;;5076549;28;20271;-52
2022/10/13 12:03:39;;;;;;;14.13;12.53;;;19.00;66.30;;;;;;5057486;28;20190;-55
2022/10/13 12:06:21;;;;;;;14.63;11.37;;;19.30;67.40;;;;;;5075940;28;20273;-50
2022/10/13 12:08:50;;;;;;;12.80;11.07;;;19.70;65.70;;;;;;5079041;28;20194;-51
2022/10/13 12:11:25;;;;;;;15.53;11.50;;;19.50;63.10;;;;;;5072033;28;20186;-55
2022/10/13 12:13:51;;;;;;;12.83;10.83;;;19.70;64.00;;;;;;5072595;28;20184;-54
2022/10/13 12:16:17;;;;;;;17.03;9.97;;;19.80;62.70;;;;;;5076579;28;20261;-55
2022/10/13 12:18:43;;;;;;;11.50;9.77;;;19.80;62.80;;;;;;5057532;28;20193;-52
2022/10/13 12:21:13;;;;;;;11.10;9.47;;;19.90;63.00;;;;;;5052158;28;20208;-54
2022/10/13 12:23:40;;;;;;;15.80;11.20;;;19.90;63.50;;;;;;5073544;28;20185;-53
2022/10/13 12:26:06;;;;;;;11.33;8.87;;;19.90;61.30;;;;;;5059026;28;20197;-53
2022/10/13 12:28:59;;;;;;;15.43;9.37;;;20.10;62.50;;;;;;5050141;28;20190;-53
2022/10/13 12:31:37;;;;;;;13.60;10.23;;;20.20;63.20;;;;;;5100008;28;20189;-53
2022/10/13 12:34:03;;;;;;;15.00;10.03;;;20.20;60.10;;;;;;5061224;28;20192;-55
2022/10/13 12:36:32;;;;;;;14.40;9.27;;;20.30;61.80;;;;;;5063833;28;20204;-55
2022/10/13 12:39:04;;;;;;;10.87;9.73;;;20.30;60.80;;;;;;5057748;28;20234;-55
2022/10/13 12:41:43;;;;;;;12.63;9.80;;;20.50;61.00;;;;;;5055577;28;20196;-58
2022/10/13 12:44:29;;;;;;;12.97;9.37;;;20.70;60.80;;;;;;5051959;28;20288;-58
2022/10/13 12:46:58;;;;;;;17.13;9.43;;;20.30;60.50;;;;;;5054883;28;20206;-58
2022/10/13 12:49:30;;;;;;;14.03;9.73;;;20.60;59.40;;;;;;5049723;28;20194;-58